Malvern, IA

3:39 AM CST on December 05, 2016 (GMT -0600)
farmstead south of Hastings, IA | | Change Station

Elev 1115 ft 41.01 °N, 95.50 °W | Updated 11 minutes ago

Mostly Cloudy
Mostly Cloudy
33.7 °F
Feels Like 26 °F
N
10.0
Wind Variable Wind from South
Gusts 17.0 mph

Today
High -- | Low -- °F
--% Chance of Precip.
Yesterday
High -- | Low -- °F
Precip. -- in
Pressure 29.87 in
Visibility 10.0 miles
Clouds Scattered Clouds 21000 ft
Mostly Cloudy 23000 ft
Mostly Cloudy 27000 ft
Windchill 26 °F
Dew Point 32 °F
Humidity 92%
Rainfall 0.00 in
Snow Depth Not available.
7:32 AM 4:54 PM
Waxing Crescent, 30% visible
METAR KRDK 050935Z AUTO 18005KT 10SM SCT210 BKN230 BKN270 M00/M00 A2987 RMK AO2
Pressure 29.87 in
Visibility 10.0 miles
Clouds Scattered Clouds 21000 ft
Mostly Cloudy 23000 ft
Mostly Cloudy 27000 ft
Windchill 26 °F
Dew Point 32 °F
Humidity 92%
Rainfall 0.00 in
Snow Depth Not available.
7:32 AM 4:54 PM
Waxing Crescent, 30% visible
METAR KRDK 050935Z AUTO 18005KT 10SM SCT210 BKN230 BKN270 M00/M00 A2987 RMK AO2

10-Day Weather Forecast

Almanac

Astronomy

Dec. 05, 2016 Rise Set
Actual Time
Civil Twilight
Nautical Twilight
Astronomical Twilight
Moon
Length of Visible Light
Length of Day
Tomorrow will be .
, % of the Moon is Illuminated

Today's Extremes

State Highs State Lows

Community

WunderPhotos

Upload Photos

1,955,771 photos uploaded!

WunderBlog® & News

Nearby

Air Quality

  Air Quality AQ Index Pollutant
Not available.

Snow Depth

Station Depth Elevation

Earthquake Activity

City Distance Mag. Time & Date
Minimum magnitude displayed is 2.5.

Coastal Water Temperatures

Place Temperature

Stations

Nearby Weather Stations

Station Location Temp. Windchill Dew Point Humidity Wind Precip. Elev Updated Type
                   

Watches & Warnings

There are currently no watches in effect.